Time;durP1;ratioP1;P1;durP2;ratioP2;P2;SDS_P1;SDS_P2;PMS_P1;PMS_P2;Temp;Humidity;BMP_temperature;BMP_pressure;BME280_temperature;BME280_humidity;BME280_pressure;Samples;Min_cycle;Max_cycle;Signal;HPM_P1;HPM_P2
2022/11/15 00:01:38;;;;;;;32.53;21.60;;;7.40;99.90;;;;;;6246242;22;20146;-94
2022/11/15 00:04:07;;;;;;;34.38;22.50;;;7.40;99.90;;;;;;6246581;22;20336;-96
2022/11/15 00:06:33;;;;;;;31.88;21.85;;;7.40;99.90;;;;;;6221279;22;20055;-95
2022/11/15 00:09:00;;;;;;;30.35;20.73;;;8.20;99.90;;;;;;6246008;22;20058;-95
2022/11/15 00:11:29;;;;;;;32.33;22.05;;;7.90;99.90;;;;;;6221079;22;20026;-95
2022/11/15 00:13:56;;;;;;;31.10;22.23;;;8.30;99.90;;;;;;6219787;22;20014;-95
2022/11/15 00:16:22;;;;;;;32.83;21.95;;;7.60;99.90;;;;;;6221023;22;20027;-95
2022/11/15 00:18:48;;;;;;;33.35;22.33;;;7.30;99.90;;;;;;6221182;22;20016;-94
2022/11/15 00:21:14;;;;;;;31.92;22.05;;;7.20;99.90;;;;;;6247632;22;20024;-94
2022/11/15 00:23:40;;;;;;;31.65;22.60;;;8.10;99.90;;;;;;6247740;22;20020;-94
2022/11/15 00:26:11;;;;;;;36.17;21.92;;;7.40;99.90;;;;;;6247413;22;20102;-94
2022/11/15 00:28:37;;;;;;;30.98;21.77;;;7.00;99.90;;;;;;6222021;22;20020;-93
2022/11/15 00:31:04;;;;;;;31.67;21.83;;;6.90;99.90;;;;;;6248120;22;20049;-95
2022/11/15 00:33:30;;;;;;;33.45;22.10;;;6.70;99.90;;;;;;6221915;22;20027;-93
2022/11/15 00:36:02;;;;;;;34.53;21.67;;;7.60;99.90;;;;;;6246688;22;20016;-93
2022/11/15 00:38:33;;;;;;;34.25;21.77;;;6.60;99.90;;;;;;6222924;22;20375;-93
2022/11/15 00:41:00;;;;;;;32.58;22.33;;;7.50;99.90;;;;;;6222947;22;20007;-93
2022/11/15 00:43:25;;;;;;;33.63;22.80;;;5.70;99.90;;;;;;6222268;22;20045;-93
2022/11/15 00:45:51;;;;;;;34.78;22.70;;;6.60;99.90;;;;;;6246726;22;20023;-94
2022/11/15 00:48:19;;;;;;;36.55;23.48;;;7.00;99.90;;;;;;6246983;22;20016;-94
2022/11/15 00:50:45;;;;;;;36.78;23.17;;;6.80;99.90;;;;;;6222537;22;20507;-93
2022/11/15 00:53:11;;;;;;;36.08;24.58;;;7.60;99.90;;;;;;6248191;22;20016;-93
2022/11/15 00:55:36;;;;;;;38.75;24.02;;;7.20;99.90;;;;;;6247756;22;20324;-93
2022/11/15 00:58:02;;;;;;;36.25;23.70;;;7.80;99.90;;;;;;6246796;22;20008;-93
2022/11/15 01:00:28;;;;;;;35.05;24.27;;;6.30;99.90;;;;;;6247956;22;20398;-94
2022/11/15 01:02:54;;;;;;;35.30;23.15;;;6.60;99.90;;;;;;6245483;22;20046;-94
2022/11/15 01:05:19;;;;;;;39.22;23.33;;;6.80;99.90;;;;;;6248361;22;20016;-94
2022/11/15 01:07:45;;;;;;;31.88;23.15;;;6.80;99.90;;;;;;6247573;22;20019;-93
2022/11/15 01:10:11;;;;;;;40.15;23.67;;;7.30;99.90;;;;;;6246776;22;20300;-94
2022/11/15 01:12:37;;;;;;;35.33;22.85;;;6.90;99.90;;;;;;6247677;22;20015;-94
2022/11/15 01:15:04;;;;;;;33.22;22.83;;;6.90;99.90;;;;;;6247261;22;20447;-96
2022/11/15 01:17:30;;;;;;;33.75;22.88;;;6.50;99.90;;;;;;6220471;22;20022;-94
2022/11/15 01:19:56;;;;;;;32.90;22.50;;;7.50;99.90;;;;;;6248126;22;20012;-95
2022/11/15 01:22:22;;;;;;;33.25;21.23;;;6.60;99.90;;;;;;6247238;22;20098;-94
2022/11/15 01:24:50;;;;;;;30.58;21.13;;;6.80;99.90;;;;;;6246816;22;20023;-95
2022/11/15 01:27:15;;;;;;;35.30;22.02;;;7.10;99.90;;;;;;6221277;22;20474;-94
2022/11/15 01:29:41;;;;;;;31.50;22.35;;;6.90;99.90;;;;;;6247853;22;20012;-94
2022/11/15 01:32:07;;;;;;;31.20;21.65;;;7.20;99.90;;;;;;6246340;22;20019;-94
2022/11/15 01:34:32;;;;;;;32.15;21.77;;;6.80;99.90;;;;;;6246780;22;20016;-95
2022/11/15 01:36:58;;;;;;;34.97;22.23;;;6.70;99.90;;;;;;6247805;22;20050;-93
2022/11/15 01:39:24;;;;;;;31.83;22.33;;;6.70;99.90;;;;;;6246661;22;20094;-93
2022/11/15 01:41:50;;;;;;;34.60;22.98;;;6.80;99.90;;;;;;6247332;22;20023;-95
2022/11/15 01:44:40;;;;;;;32.08;22.45;;;7.50;99.90;;;;;;6247945;22;20016;-95
2022/11/15 01:47:17;;;;;;;35.92;22.35;;;7.20;99.90;;;;;;6221555;22;20023;-96
2022/11/15 01:50:06;;;;;;;33.67;22.10;;;6.60;99.90;;;;;;6221672;22;20011;-95
2022/11/15 01:52:34;;;;;;;41.33;23.85;;;6.60;99.90;;;;;;6220731;22;20030;-95
2022/11/15 01:55:11;;;;;;;32.80;22.95;;;7.10;99.90;;;;;;6222811;22;20474;-95
2022/11/15 01:57:39;;;;;;;37.58;22.83;;;6.70;99.90;;;;;;6222066;22;20022;-96
2022/11/15 02:00:06;;;;;;;32.55;23.15;;;7.10;99.90;;;;;;6221175;22;20012;-96
2022/11/15 02:02:33;;;;;;;35.35;21.92;;;6.80;99.90;;;;;;6221415;22;20440;-95
2022/11/15 02:04:59;;;;;;;37.50;23.05;;;7.40;99.90;;;;;;6222070;22;20020;-95
2022/11/15 02:07:25;;;;;;;32.05;21.92;;;6.90;99.90;;;;;;6246626;22;20024;-95
2022/11/15 02:09:52;;;;;;;31.42;20.67;;;7.60;99.90;;;;;;6221586;22;20016;-95
2022/11/15 02:12:21;;;;;;;35.88;21.95;;;8.00;99.90;;;;;;6221595;22;20074;-95
2022/11/15 02:14:53;;;;;;;32.83;21.02;;;7.90;99.90;;;;;;6220978;22;20448;-93
2022/11/15 02:17:30;;;;;;;30.83;19.33;;;6.90;99.90;;;;;;6220950;22;20055;-93
2022/11/15 02:20:13;;;;;;;32.53;20.55;;;7.90;99.90;;;;;;6220956;22;20016;-93
2022/11/15 02:23:15;;;;;;;33.35;19.63;;;7.00;99.90;;;;;;6221815;22;20015;-94
2022/11/15 02:25:41;;;;;;;35.25;21.42;;;7.00;99.90;;;;;;6220981;22;20015;-94
2022/11/15 02:28:22;;;;;;;32.90;20.40;;;7.00;99.90;;;;;;6219925;22;20076;-94
2022/11/15 02:30:59;;;;;;;36.90;21.15;;;7.00;99.90;;;;;;6220476;22;20012;-94
2022/11/15 02:33:41;;;;;;;32.65;19.92;;;7.10;99.90;;;;;;6220072;22;20016;-94
2022/11/15 02:36:18;;;;;;;35.97;21.43;;;7.00;99.90;;;;;;6220508;22;20019;-95
2022/11/15 02:38:59;;;;;;;34.20;21.05;;;7.00;99.90;;;;;;6221021;22;20048;-94
2022/11/15 02:41:35;;;;;;;35.95;21.33;;;7.00;99.90;;;;;;6220714;22;20047;-94
2022/11/15 02:44:07;;;;;;;39.45;23.00;;;7.30;99.90;;;;;;6221639;22;20470;-95
2022/11/15 02:49:29;;;;;;;39.20;22.20;;;7.60;99.90;;;;;;6245142;22;20026;-95
2022/11/15 02:51:55;;;;;;;38.85;21.70;;;7.40;99.90;;;;;;6221445;22;20054;-94
2022/11/15 02:54:25;;;;;;;39.08;22.27;;;7.80;99.90;;;;;;6221464;22;20015;-94
2022/11/15 02:56:56;;;;;;;41.42;22.58;;;7.00;99.90;;;;;;6220298;22;20011;-95
2022/11/15 02:59:49;;;;;;;38.63;23.05;;;7.40;99.90;;;;;;6221868;22;20046;-94
2022/11/15 03:02:32;;;;;;;39.45;21.75;;;7.10;99.90;;;;;;6220313;22;20099;-94
2022/11/15 03:05:08;;;;;;;43.87;24.30;;;7.00;99.90;;;;;;6221264;22;20019;-94
2022/11/15 03:07:47;;;;;;;44.15;23.98;;;7.00;99.90;;;;;;6221086;22;20020;-96
2022/11/15 03:10:22;;;;;;;44.85;23.90;;;7.00;99.90;;;;;;6221004;22;20440;-93
2022/11/15 03:12:57;;;;;;;43.70;24.35;;;7.10;99.90;;;;;;6221286;22;20781;-95
2022/11/15 03:15:29;;;;;;;43.08;24.80;;;7.10;99.90;;;;;;6221867;22;20069;-96
2022/11/15 03:18:01;;;;;;;44.83;23.55;;;7.90;99.90;;;;;;6220002;22;20041;-95
2022/11/15 03:20:29;;;;;;;48.10;24.45;;;7.30;99.90;;;;;;6222534;22;20022;-94
2022/11/15 03:23:00;;;;;;;45.55;24.42;;;7.30;99.90;;;;;;6220497;22;20011;-94
2022/11/15 03:25:28;;;;;;;40.17;23.55;;;7.10;99.90;;;;;;6221749;22;20015;-96
2022/11/15 03:27:58;;;;;;;42.75;23.83;;;7.40;99.90;;;;;;6220980;22;20026;-95
2022/11/15 03:30:24;;;;;;;47.08;23.63;;;7.60;99.90;;;;;;6221017;22;20019;-95
2022/11/15 03:32:55;;;;;;;40.30;22.00;;;7.30;99.90;;;;;;6244371;22;20310;-95
2022/11/15 03:35:24;;;;;;;41.80;23.35;;;7.40;99.90;;;;;;6221572;22;20118;-94
2022/11/15 03:38:24;;;;;;;45.78;23.70;;;7.80;99.90;;;;;;6219503;22;20458;-93
2022/11/15 03:40:57;;;;;;;44.35;23.70;;;7.20;99.90;;;;;;6220691;22;20027;-94
2022/11/15 03:43:49;;;;;;;43.33;24.08;;;7.20;99.90;;;;;;6221328;22;20027;-93
2022/11/15 03:46:24;;;;;;;40.72;22.15;;;7.20;99.90;;;;;;6220622;22;20024;-94
2022/11/15 03:48:56;;;;;;;40.85;22.88;;;8.00;99.90;;;;;;6220530;22;20082;-94
2022/11/15 03:51:22;;;;;;;45.13;23.02;;;7.70;99.90;;;;;;6219902;22;20094;-93
2022/11/15 03:53:48;;;;;;;44.83;22.13;;;7.50;99.90;;;;;;6245516;22;20015;-95
2022/11/15 03:56:14;;;;;;;41.00;22.83;;;7.30;99.90;;;;;;6245809;22;20015;-94
2022/11/15 03:58:39;;;;;;;43.72;22.50;;;7.30;99.90;;;;;;6245751;22;20012;-95
2022/11/15 04:01:05;;;;;;;42.00;22.70;;;7.60;99.90;;;;;;6245700;22;20023;-94
2022/11/15 04:03:31;;;;;;;40.97;23.40;;;7.30;99.90;;;;;;6245244;22;20016;-94
2022/11/15 04:05:56;;;;;;;45.17;23.85;;;7.30;99.90;;;;;;6245682;22;20016;-95
2022/11/15 04:08:22;;;;;;;45.03;23.55;;;8.10;99.90;;;;;;6245939;22;20015;-95
2022/11/15 04:10:49;;;;;;;43.90;23.85;;;7.90;99.90;;;;;;6246430;22;20019;-94
2022/11/15 04:13:15;;;;;;;44.22;24.00;;;7.70;99.90;;;;;;6245731;22;20051;-94
2022/11/15 04:15:41;;;;;;;44.10;23.50;;;7.90;99.90;;;;;;6245725;22;20023;-94
2022/11/15 04:18:06;;;;;;;44.70;23.45;;;7.50;99.90;;;;;;6245379;22;20012;-94
2022/11/15 04:26:10;;;;;;;54.63;24.60;;;7.90;99.90;;;;;;6245542;22;20023;-93
2022/11/15 04:29:33;;;;;;;54.20;25.58;;;7.40;99.90;;;;;;6220679;22;20015;-93
2022/11/15 04:31:22;;;;;;;53.00;26.48;;;7.50;99.90;;;;;;6245524;22;20030;-93
2022/11/15 04:33:48;;;;;;;57.83;25.38;;;8.40;99.90;;;;;;6244722;22;20016;-94
2022/11/15 04:38:58;;;;;;;56.80;27.15;;;7.60;99.90;;;;;;6245938;22;20022;-94
2022/11/15 04:41:24;;;;;;;61.40;28.25;;;7.50;99.90;;;;;;6245213;22;20098;-94
2022/11/15 04:43:49;;;;;;;57.53;26.40;;;7.60;99.90;;;;;;6245502;22;20016;-94
2022/11/15 04:46:15;;;;;;;65.80;26.88;;;8.30;99.90;;;;;;6244800;22;20054;-94
2022/11/15 04:48:40;;;;;;;72.88;29.77;;;8.40;99.90;;;;;;6244551;22;20016;-93
2022/11/15 04:51:06;;;;;;;67.85;29.52;;;8.10;99.90;;;;;;6245972;22;20525;-93
2022/11/15 04:53:32;;;;;;;68.72;28.80;;;8.70;99.90;;;;;;6245758;22;20024;-93
2022/11/15 04:55:57;;;;;;;74.35;30.02;;;8.20;99.90;;;;;;6245304;22;20027;-94
2022/11/15 04:58:23;;;;;;;63.70;29.65;;;7.70;99.90;;;;;;6245602;22;20095;-93
2022/11/15 05:00:49;;;;;;;72.10;29.38;;;7.80;99.90;;;;;;6246147;22;20031;-93
2022/11/15 05:05:59;;;;;;;76.72;30.73;;;7.80;99.90;;;;;;6247215;22;20023;-94
2022/11/15 05:08:25;;;;;;;74.10;30.48;;;7.70;99.90;;;;;;6247759;22;20090;-95
2022/11/15 05:10:51;;;;;;;81.68;31.05;;;7.80;99.90;;;;;;6222618;22;20121;-93
2022/11/15 05:13:17;;;;;;;76.57;30.85;;;6.90;99.90;;;;;;6248381;22;20043;-93
2022/11/15 05:15:43;;;;;;;72.40;29.58;;;8.40;99.90;;;;;;6220508;22;20055;-93
2022/11/15 05:18:09;;;;;;;81.47;31.80;;;8.80;99.90;;;;;;6247035;22;20073;-93
2022/11/15 05:20:35;;;;;;;79.07;31.25;;;7.80;99.90;;;;;;6247229;22;20026;-93
2022/11/15 05:23:01;;;;;;;85.00;31.30;;;8.50;99.90;;;;;;6247110;22;20012;-94
2022/11/15 05:25:26;;;;;;;87.72;33.45;;;8.20;99.90;;;;;;6247584;22;20495;-93
2022/11/15 05:27:52;;;;;;;90.45;32.22;;;8.40;99.90;;;;;;6246336;22;20320;-93
2022/11/15 05:30:18;;;;;;;85.20;33.22;;;7.90;99.90;;;;;;6247505;22;20443;-93
2022/11/15 05:32:44;;;;;;;83.07;32.67;;;8.50;99.90;;;;;;6246068;22;20034;-93
2022/11/15 05:35:17;;;;;;;86.32;33.03;;;7.90;99.90;;;;;;6222075;22;20448;-92
2022/11/15 05:37:43;;;;;;;88.10;32.85;;;7.80;99.90;;;;;;6221154;22;20011;-92
2022/11/15 05:40:09;;;;;;;87.05;32.95;;;8.40;99.90;;;;;;6222555;22;20012;-92
2022/11/15 05:42:34;;;;;;;89.13;34.05;;;8.00;99.90;;;;;;6247121;22;20455;-92
2022/11/15 05:45:05;;;;;;;89.30;34.35;;;7.80;99.90;;;;;;6247152;22;20019;-92
2022/11/15 05:47:31;;;;;;;88.82;35.90;;;8.00;99.90;;;;;;6221244;22;20015;-93
2022/11/15 05:49:57;;;;;;;90.70;34.67;;;8.90;99.90;;;;;;6222154;22;20440;-94
2022/11/15 05:52:27;;;;;;;101.88;37.70;;;8.50;99.90;;;;;;6246299;22;20051;-92
2022/11/15 05:54:54;;;;;;;93.50;37.70;;;8.40;99.90;;;;;;6222181;22;20095;-93
2022/11/15 05:57:20;;;;;;;96.75;38.28;;;8.00;99.90;;;;;;6222144;22;20023;-93
2022/11/15 05:59:45;;;;;;;96.60;36.72;;;8.00;99.90;;;;;;6246734;22;20081;-92
2022/11/15 06:02:11;;;;;;;102.80;37.85;;;8.20;99.90;;;;;;6246921;22;20451;-91
2022/11/15 06:04:37;;;;;;;108.10;39.80;;;8.40;99.90;;;;;;6246207;22;20023;-92
2022/11/15 06:07:02;;;;;;;121.55;40.47;;;8.20;99.90;;;;;;6247602;22;20027;-93
2022/11/15 06:09:28;;;;;;;108.78;40.33;;;8.60;99.90;;;;;;6247684;22;20012;-92
2022/11/15 06:11:54;;;;;;;117.50;42.45;;;8.30;99.90;;;;;;6246986;22;20015;-92
2022/11/15 06:14:20;;;;;;;135.25;42.15;;;8.20;99.90;;;;;;6248065;22;20023;-92
2022/11/15 06:16:45;;;;;;;132.73;41.60;;;8.20;99.90;;;;;;6220932;22;20024;-92
2022/11/15 06:19:11;;;;;;;123.80;40.90;;;9.00;99.90;;;;;;6245924;22;20008;-91
2022/11/15 06:21:37;;;;;;;157.68;45.15;;;8.10;99.90;;;;;;6245739;22;20042;-93
2022/11/15 06:24:03;;;;;;;132.52;43.60;;;8.20;99.90;;;;;;6246352;22;20051;-93
2022/11/15 06:26:28;;;;;;;136.50;41.95;;;8.30;99.90;;;;;;6220867;22;20103;-90
2022/11/15 06:28:54;;;;;;;129.80;40.95;;;8.50;99.90;;;;;;6246256;22;20481;-91
2022/11/15 06:31:20;;;;;;;148.18;43.58;;;8.30;99.90;;;;;;6246469;22;20024;-90
2022/11/15 06:33:46;;;;;;;133.30;42.03;;;8.60;99.90;;;;;;6243937;22;20099;-92
2022/11/15 06:36:16;;;;;;;121.60;43.85;;;8.30;99.90;;;;;;6246178;22;20024;-92
2022/11/15 06:38:41;;;;;;;144.50;45.17;;;8.10;99.90;;;;;;6221608;22;20019;-91
2022/11/15 06:41:09;;;;;;;123.93;43.53;;;8.50;99.90;;;;;;6245762;22;20023;-92
2022/11/15 06:43:35;;;;;;;124.90;44.05;;;8.40;99.90;;;;;;6220749;22;20023;-92
2022/11/15 06:46:02;;;;;;;125.47;44.25;;;8.30;99.90;;;;;;6245733;22;20026;-92
2022/11/15 06:48:29;;;;;;;126.57;44.33;;;8.50;99.90;;;;;;6220033;22;20070;-93
2022/11/15 06:50:56;;;;;;;149.63;47.65;;;8.50;99.90;;;;;;6220392;22;20019;-92
2022/11/15 06:53:23;;;;;;;139.13;47.50;;;8.90;99.90;;;;;;6221521;22;20026;-91
2022/11/15 06:55:49;;;;;;;137.10;46.38;;;8.40;99.90;;;;;;6220126;22;20022;-91
2022/11/15 06:58:15;;;;;;;133.60;46.08;;;9.00;99.90;;;;;;6246569;22;20094;-90
2022/11/15 07:00:41;;;;;;;130.80;46.03;;;9.10;99.90;;;;;;6246439;22;20023;-91
2022/11/15 07:03:07;;;;;;;148.25;48.60;;;8.60;99.90;;;;;;6218902;22;20016;-91
2022/11/15 07:05:33;;;;;;;131.70;46.22;;;8.80;99.90;;;;;;6221422;22;20015;-92
2022/11/15 07:07:59;;;;;;;122.18;45.50;;;8.80;99.90;;;;;;6245604;22;20511;-92
2022/11/15 07:10:25;;;;;;;142.32;49.10;;;8.70;99.90;;;;;;6222011;22;20098;-91
2022/11/15 07:12:51;;;;;;;129.95;46.17;;;9.60;99.90;;;;;;6245593;22;20027;-93
2022/11/15 07:15:19;;;;;;;120.10;44.90;;;8.80;99.90;;;;;;6220031;22;20035;-89
2022/11/15 07:17:45;;;;;;;129.20;45.47;;;8.80;99.90;;;;;;6243154;22;20081;-89
2022/11/15 07:20:13;;;;;;;110.88;44.30;;;9.40;99.90;;;;;;6220858;22;20007;-92
2022/11/15 07:22:39;;;;;;;118.25;45.08;;;9.00;99.90;;;;;;6220075;22;20023;-92
2022/11/15 07:25:05;;;;;;;125.50;45.90;;;9.90;99.90;;;;;;6220988;22;20444;-92
2022/11/15 07:27:30;;;;;;;115.82;44.55;;;9.30;99.90;;;;;;6246020;22;20012;-90
2022/11/15 07:29:56;;;;;;;121.25;45.10;;;9.40;99.90;;;;;;6244645;22;20451;-92
2022/11/15 07:32:22;;;;;;;113.65;43.70;;;9.90;99.90;;;;;;6244863;22;20118;-91
2022/11/15 07:34:47;;;;;;;119.03;43.47;;;9.70;99.90;;;;;;6244575;22;20459;-90
2022/11/15 07:37:13;;;;;;;113.28;45.67;;;9.40;99.90;;;;;;6244901;22;20114;-90
2022/11/15 07:39:39;;;;;;;113.35;43.03;;;9.50;99.90;;;;;;6244669;22;20081;-92
2022/11/15 07:44:49;;;;;;;99.00;41.38;;;9.60;99.90;;;;;;6245505;22;20026;-91
2022/11/15 07:47:15;;;;;;;104.20;39.10;;;9.50;99.90;;;;;;6245838;22;20508;-91
2022/11/15 07:49:40;;;;;;;104.78;42.88;;;9.70;99.90;;;;;;6248141;22;20141;-91
2022/11/15 07:52:06;;;;;;;95.15;39.50;;;9.60;99.90;;;;;;6248626;22;20448;-91
2022/11/15 07:54:32;;;;;;;98.88;40.42;;;9.60;99.90;;;;;;6245248;22;20335;-89
2022/11/15 07:56:57;;;;;;;95.93;39.10;;;9.80;99.90;;;;;;6245723;22;20016;-89
2022/11/15 07:59:23;;;;;;;101.00;40.60;;;9.60;99.90;;;;;;6245204;22;20086;-91
2022/11/15 08:01:49;;;;;;;98.40;39.63;;;9.80;99.90;;;;;;6245304;22;20023;-90
2022/11/15 08:04:14;;;;;;;83.63;35.95;;;10.50;99.90;;;;;;6257806;22;20019;-90
2022/11/15 08:06:40;;;;;;;85.78;38.05;;;9.90;99.90;;;;;;6248797;22;20027;-90
2022/11/15 08:09:06;;;;;;;81.80;37.00;;;9.90;99.90;;;;;;6246113;22;20092;-90
2022/11/15 08:11:31;;;;;;;81.45;36.88;;;9.90;99.90;;;;;;6245059;22;20031;-90
2022/11/15 08:13:58;;;;;;;78.78;35.90;;;10.10;99.90;;;;;;6245890;22;20019;-90
2022/11/15 08:16:23;;;;;;;79.50;35.63;;;9.90;99.90;;;;;;6220663;22;20470;-90
2022/11/15 08:18:49;;;;;;;71.25;34.38;;;10.00;99.90;;;;;;6243886;22;20023;-89
2022/11/15 08:21:18;;;;;;;76.45;33.85;;;10.10;99.90;;;;;;6245781;22;20024;-89
2022/11/15 08:23:45;;;;;;;73.10;34.55;;;10.00;99.90;;;;;;6218122;22;20019;-89
2022/11/15 08:26:11;;;;;;;74.85;33.85;;;10.20;99.90;;;;;;6218758;22;20023;-88
2022/11/15 08:28:37;;;;;;;64.45;32.63;;;10.40;99.90;;;;;;6243563;22;20347;-88
2022/11/15 08:31:06;;;;;;;57.58;31.40;;;10.20;99.90;;;;;;6214342;23;20027;-89
2022/11/15 08:33:32;;;;;;;58.55;30.63;;;10.20;99.90;;;;;;6189603;23;20031;-90
2022/11/15 08:36:00;;;;;;;63.17;30.65;;;10.20;99.90;;;;;;6189986;23;20063;-91
2022/11/15 08:38:28;;;;;;;57.67;30.63;;;10.40;99.90;;;;;;6190426;23;20012;-90
2022/11/15 08:41:01;;;;;;;55.78;29.13;;;10.50;99.90;;;;;;6190373;23;20103;-91
2022/11/15 08:43:26;;;;;;;57.08;29.23;;;10.40;99.90;;;;;;6192339;23;20019;-90
2022/11/15 08:45:56;;;;;;;52.72;29.05;;;10.50;99.90;;;;;;6191179;23;20348;-90
2022/11/15 08:48:22;;;;;;;53.67;28.15;;;11.10;99.90;;;;;;6191124;23;20020;-90
2022/11/15 08:50:48;;;;;;;50.05;27.17;;;10.70;99.90;;;;;;6191483;23;20008;-90
2022/11/15 08:53:14;;;;;;;47.47;26.45;;;10.80;99.90;;;;;;6192517;23;20078;-90
2022/11/15 08:55:40;;;;;;;53.15;27.67;;;10.60;99.90;;;;;;6192282;23;20059;-90
2022/11/15 08:58:06;;;;;;;47.45;25.90;;;10.40;99.90;;;;;;6191487;23;20031;-90
2022/11/15 09:00:33;;;;;;;48.53;25.65;;;10.80;99.90;;;;;;6191411;23;20452;-91
2022/11/15 09:02:59;;;;;;;47.33;26.23;;;11.00;99.90;;;;;;6192953;23;20462;-90
2022/11/15 09:05:25;;;;;;;46.60;24.48;;;10.60;99.90;;;;;;6192076;23;20059;-90
2022/11/15 09:07:54;;;;;;;43.00;24.40;;;11.20;99.90;;;;;;6190862;23;20066;-89
2022/11/15 09:10:21;;;;;;;41.95;25.88;;;10.80;99.90;;;;;;6192457;23;20016;-90
2022/11/15 09:12:48;;;;;;;41.22;24.50;;;10.80;99.90;;;;;;6191421;23;20471;-90
2022/11/15 09:15:15;;;;;;;41.00;22.52;;;10.90;99.90;;;;;;6191709;23;20016;-90
2022/11/15 09:17:41;;;;;;;38.70;22.63;;;11.00;99.90;;;;;;6190084;23;20020;-89
2022/11/15 09:20:08;;;;;;;34.83;22.10;;;11.10;99.90;;;;;;6191776;23;20237;-89
2022/11/15 09:22:34;;;;;;;36.58;21.48;;;10.90;99.90;;;;;;6189967;23;20020;-90
2022/11/15 09:25:00;;;;;;;35.63;21.48;;;11.10;99.90;;;;;;6191546;23;20016;-90
2022/11/15 09:27:29;;;;;;;33.50;21.00;;;11.00;99.90;;;;;;6191062;23;20023;-89
2022/11/15 09:29:55;;;;;;;34.42;21.10;;;11.20;99.90;;;;;;6190692;23;20047;-92
2022/11/15 09:32:23;;;;;;;32.53;20.40;;;11.10;99.90;;;;;;6191483;23;20043;-90
2022/11/15 09:34:49;;;;;;;31.92;19.55;;;11.10;99.90;;;;;;6190751;23;20020;-91
2022/11/15 09:37:15;;;;;;;31.45;20.08;;;11.10;99.90;;;;;;6191383;23;20035;-90
2022/11/15 09:39:41;;;;;;;31.95;20.33;;;11.20;99.90;;;;;;6191623;23;20432;-90
2022/11/15 09:42:11;;;;;;;30.38;19.00;;;11.30;99.90;;;;;;6190799;23;20023;-90
2022/11/15 09:44:44;;;;;;;31.50;20.10;;;11.30;99.90;;;;;;6190384;23;20024;-90
2022/11/15 09:47:34;;;;;;;31.25;18.80;;;11.10;99.90;;;;;;6190520;23;20453;-90
2022/11/15 09:50:07;;;;;;;31.23;19.58;;;11.30;99.90;;;;;;6190271;23;20059;-90
2022/11/15 09:52:35;;;;;;;33.20;19.50;;;11.50;99.90;;;;;;6191020;23;20081;-90
2022/11/15 09:55:01;;;;;;;31.15;19.65;;;11.20;99.90;;;;;;6191162;23;20014;-90
2022/11/15 09:57:37;;;;;;;31.20;19.35;;;11.20;99.90;;;;;;6190115;23;20407;-90
2022/11/15 10:00:20;;;;;;;36.90;19.20;;;11.40;99.90;;;;;;6190522;23;20008;-91
2022/11/15 10:02:54;;;;;;;34.00;19.55;;;11.40;99.90;;;;;;6189751;23;20016;-90
2022/11/15 10:05:23;;;;;;;27.35;18.77;;;11.50;99.90;;;;;;6190893;23;20108;-90
2022/11/15 10:08:03;;;;;;;29.20;19.00;;;11.50;99.90;;;;;;6189520;23;20510;-89
2022/11/15 10:10:35;;;;;;;34.28;18.30;;;11.40;99.90;;;;;;6190160;23;20012;-89
2022/11/15 10:13:01;;;;;;;29.65;19.02;;;11.50;99.90;;;;;;6189368;23;20044;-89
2022/11/15 10:15:26;;;;;;;24.20;17.38;;;11.40;99.90;;;;;;6190109;23;20141;-89
2022/11/15 10:18:07;;;;;;;28.83;18.33;;;11.50;99.90;;;;;;6188518;23;20016;-92
2022/11/15 10:20:51;;;;;;;27.88;17.48;;;11.50;99.90;;;;;;6190560;23;20021;-91
2022/11/15 10:23:21;;;;;;;26.10;17.58;;;11.70;99.90;;;;;;6191113;23;20024;-91
2022/11/15 10:25:47;;;;;;;29.85;18.33;;;11.50;99.90;;;;;;6188938;23;20047;-91
2022/11/15 10:28:21;;;;;;;32.72;17.48;;;11.50;99.90;;;;;;6191135;23;20019;-90
2022/11/15 10:30:53;;;;;;;28.70;18.17;;;11.50;99.90;;;;;;6190078;23;20091;-91
2022/11/15 10:33:33;;;;;;;32.83;18.15;;;11.60;99.90;;;;;;6184125;23;20025;-89
2022/11/15 10:36:08;;;;;;;26.75;17.58;;;11.50;99.90;;;;;;6185883;23;20024;-89
2022/11/15 10:38:49;;;;;;;26.33;18.05;;;11.50;99.90;;;;;;6190492;23;20023;-90
2022/11/15 10:41:18;;;;;;;27.23;17.60;;;11.50;99.90;;;;;;6192050;23;20020;-90
2022/11/15 10:43:45;;;;;;;28.80;17.85;;;11.50;99.90;;;;;;6184746;23;20017;-90
2022/11/15 10:46:20;;;;;;;27.83;16.98;;;11.50;99.90;;;;;;6185032;23;20024;-90
2022/11/15 10:48:46;;;;;;;25.40;17.20;;;11.50;99.90;;;;;;6186839;23;20016;-89
2022/11/15 10:51:28;;;;;;;25.00;17.67;;;11.60;99.90;;;;;;6186074;23;20024;-90
2022/11/15 10:53:56;;;;;;;26.95;16.75;;;11.40;99.90;;;;;;6187111;23;20017;-90
2022/11/15 10:56:24;;;;;;;28.65;17.02;;;11.50;99.90;;;;;;6190657;23;20016;-89
2022/11/15 10:58:55;;;;;;;23.02;16.10;;;11.40;99.90;;;;;;6185297;23;20456;-88
2022/11/15 11:01:27;;;;;;;28.70;17.88;;;11.50;99.90;;;;;;6185787;23;20449;-91
2022/11/15 11:04:05;;;;;;;33.97;18.05;;;11.50;99.90;;;;;;6185691;23;20344;-89
2022/11/15 11:06:51;;;;;;;31.95;19.52;;;11.50;99.90;;;;;;6185007;23;20020;-89
2022/11/15 11:09:38;;;;;;;29.73;18.23;;;11.50;99.90;;;;;;6211382;23;20086;-90
2022/11/15 11:12:09;;;;;;;34.20;20.70;;;11.40;99.90;;;;;;6186581;23;20040;-90
2022/11/15 11:14:38;;;;;;;35.47;20.02;;;11.60;99.90;;;;;;6186515;23;20013;-92
2022/11/15 11:17:31;;;;;;;32.88;19.85;;;11.50;99.90;;;;;;6186469;23;20027;-91
2022/11/15 11:20:06;;;;;;;38.63;20.50;;;11.40;99.90;;;;;;6186834;23;20019;-91
2022/11/15 11:22:56;;;;;;;29.88;20.27;;;11.70;99.90;;;;;;6210589;23;20059;-93
2022/11/15 11:25:27;;;;;;;30.92;18.92;;;11.70;99.90;;;;;;6186460;23;20099;-91
2022/11/15 11:28:21;;;;;;;26.73;18.10;;;11.80;99.90;;;;;;6185878;23;20058;-91
2022/11/15 11:31:07;;;;;;;30.73;18.13;;;11.80;99.90;;;;;;6185878;23;20040;-90
2022/11/15 11:33:44;;;;;;;29.00;17.63;;;11.70;99.90;;;;;;6181226;23;20021;-90
2022/11/15 11:36:25;;;;;;;29.38;17.45;;;11.80;99.90;;;;;;6185370;23;20025;-93
2022/11/15 11:39:14;;;;;;;28.80;18.60;;;11.60;99.90;;;;;;6185712;23;20051;-94
2022/11/15 11:42:19;;;;;;;24.77;17.83;;;11.90;99.90;;;;;;6188000;23;20060;-91
2022/11/15 11:45:14;;;;;;;27.23;17.83;;;12.10;99.90;;;;;;6186310;23;20511;-93
2022/11/15 11:47:54;;;;;;;25.17;16.20;;;11.90;99.90;;;;;;6183849;23;20032;-94
2022/11/15 11:50:25;;;;;;;20.75;16.02;;;12.00;99.90;;;;;;6184772;23;20016;-92
2022/11/15 11:52:59;;;;;;;24.45;15.18;;;12.10;99.90;;;;;;6185123;23;20021;-92
2022/11/15 11:55:29;;;;;;;23.63;15.20;;;12.20;99.90;;;;;;6186046;23;20013;-91
2022/11/15 11:58:13;;;;;;;21.58;13.82;;;12.20;99.90;;;;;;6184583;23;20079;-92
2022/11/15 12:00:45;;;;;;;19.20;13.07;;;12.30;99.90;;;;;;6185522;23;20095;-94
2022/11/15 12:03:25;;;;;;;18.13;13.38;;;12.30;99.90;;;;;;6185393;23;20028;-93
2022/11/15 12:05:56;;;;;;;18.05;12.70;;;12.40;99.90;;;;;;6185547;23;20099;-91
2022/11/15 12:08:27;;;;;;;15.43;12.68;;;12.40;99.90;;;;;;6185483;23;20079;-91
2022/11/15 12:11:10;;;;;;;14.48;11.05;;;12.40;99.90;;;;;;6209598;23;20017;-92
2022/11/15 12:13:37;;;;;;;17.40;10.15;;;12.50;99.90;;;;;;6188096;23;20467;-90
2022/11/15 12:16:13;;;;;;;14.98;10.32;;;12.40;99.90;;;;;;6187243;23;20020;-92
2022/11/15 12:18:44;;;;;;;16.38;10.73;;;12.30;99.90;;;;;;6186631;23;20074;-91
2022/11/15 12:21:35;;;;;;;14.48;10.45;;;12.30;99.90;;;;;;6188043;23;20016;-91
2022/11/15 12:24:08;;;;;;;13.70;10.48;;;12.30;99.90;;;;;;6190693;23;20035;-93
2022/11/15 12:26:41;;;;;;;14.55;10.95;;;12.40;99.90;;;;;;6188085;23;20027;-92
2022/11/15 12:29:16;;;;;;;15.93;10.15;;;12.40;99.90;;;;;;6187833;23;20009;-92
2022/11/15 12:31:48;;;;;;;8.80;6.38;;;12.20;99.90;;;;;;6189834;23;20020;-92
2022/11/15 12:34:19;;;;;;;12.48;6.53;;;12.30;99.90;;;;;;6190063;23;20016;-91
2022/11/15 12:36:46;;;;;;;12.60;6.38;;;12.20;99.90;;;;;;6186575;23;20055;-92
2022/11/15 12:39:13;;;;;;;12.55;5.78;;;12.10;99.90;;;;;;6187178;23;20013;-91
2022/11/15 12:41:43;;;;;;;9.23;4.78;;;12.00;99.90;;;;;;6186852;23;20503;-90
2022/11/15 12:44:13;;;;;;;9.20;5.15;;;12.10;99.90;;;;;;6189808;22;20016;-91
2022/11/15 12:46:38;;;;;;;10.25;5.22;;;12.20;99.90;;;;;;6185616;23;20024;-91
2022/11/15 12:49:30;;;;;;;13.00;5.45;;;12.10;99.90;;;;;;6186268;23;20042;-92
2022/11/15 12:51:57;;;;;;;9.65;5.25;;;12.10;99.90;;;;;;6186661;23;20046;-92
2022/11/15 12:54:22;;;;;;;10.80;6.07;;;12.10;99.90;;;;;;6185776;23;20024;-91
2022/11/15 12:57:03;;;;;;;10.23;5.93;;;12.20;99.90;;;;;;6187134;23;20017;-91
2022/11/15 12:59:55;;;;;;;10.32;5.75;;;12.00;99.90;;;;;;6192849;23;20024;-91
2022/11/15 13:02:26;;;;;;;7.13;5.25;;;12.00;99.90;;;;;;6186080;23;20099;-93
2022/11/15 13:04:55;;;;;;;9.38;5.25;;;12.00;99.90;;;;;;6186775;23;20058;-91